Meteo Giornale » Osservazioni meteo Argentina » San Rafael Aerodrome
ore: 16:00 - Osservazioni Meteo San Rafael Aerodrome
Lat. 34° 35' S Lon. 68° 24' W Alt. 745 metri s.l.m.
21 °C
Sereno
Temp. 24 Ore
10 °C
21 °C
Est
14.8 Km/h
Dew point -1 °C
Umidità 22 %
Visibilità 10 Km
Il sole sorge alle ore 07:53
Il sole tramonta alle ore 19:14
| Data e Ora | Cielo e Fenomeni | T °C | DP °C | Um. % | Pres. hPa | Vis. km | Vento km/h | |
|---|---|---|---|---|---|---|---|---|
| Oggi h: 16:00 | Sereno | 21 | -1 | 22 | 1018 | 10 | E 14.8 | |
| Oggi h: 15:00 | Sereno | 20 | -1 | 24 | 1018 | 10 | N 5.5 | |
| Oggi h: 14:00 | Sereno | 20 | -1 | 24 | 1020 | 10 | E 24 | |
| Oggi h: 13:00 | Sereno | 19 | -1 | 25 | 1019 | 10 | E 20.3 | |
| Oggi h: 12:00 | Sereno | 18 | -1 | 27 | 1019 | 10 | E/SE 18.5 | |
| Oggi h: 11:00 | Sereno | 17 | -1 | 29 | 1019 | 10 | E/SE 16.7 | |
| Oggi h: 10:00 | Sereno | 17 | -1 | 29 | 1017 | 10 | S 11.1 | |
| Oggi h: 09:00 | Sereno | 12 | -2 | 37 | 1016 | 10 | N 5.5 | |
| Oggi h: 08:00 | Sereno | 10 | -2 | 42 | 1015 | 10 | O 11.1 | |
| Oggi h: 07:00 | Sereno | 11 | -4 | 34 | 1014 | 10 | SO 11.1 | |
| Oggi h: 06:00 | Sereno | 10 | -2 | 42 | 1013 | 10 | S 18.5 | |
| Oggi h: 05:00 | Sereno | 11 | 0 | 46 | 1013 | 10 | SO 18.5 | |
| Oggi h: 04:00 | Sereno | 10 | 1 | 53 | 1013 | 10 | O/SO 11.1 | |
| Oggi h: 03:00 | Sereno | 11 | 1 | 50 | 1013 | 10 | O 13 | |
| Oggi h: 02:00 | Sereno | 11 | 1 | 50 | 1013 | 10 | O 9.3 | |
| Oggi h: 01:00 | Sereno | 10 | 2 | 57 | 1012 | 10 | O 9.3 | |
| Oggi h: 00:00 | Sereno | 10 | 1 | 53 | 1012 | 10 | O 7.4 | |
| Ieri h: 23:00 | Sereno | 11 | 2 | 53 | 1012 | 10 | O 11.1 | |
| Ieri h: 22:00 | Sereno | 12 | 2 | 50 | 1011 | 10 | O 9.3 | |
| Ieri h: 21:00 | Sereno | 13 | 4 | 54 | 1011 | 10 | SO 7.4 | |
| Ieri h: 20:00 | Sereno | 15 | 4 | 47 | 1010 | 10 | N 5.5 | |
| Ieri h: 19:00 | Sereno | 18 | 4 | 39 | 1010 | 10 | N 0 | |
| Ieri h: 18:00 | Sereno | 19 | 3 | 34 | 1010 | 10 | N 0 | |
| Ieri h: 17:00 | Sereno | 20 | 2 | 30 | 1010 | 10 | N 5.5 | |



